Airfield :
LOGIN :

Register | Disclaimer

   EN    FR    IT 

 










Legend :    VFR   Marginal VFR   IFR   Intensive IFR   Very Intensive IFR
Visi :
Ceiling :
>= 8 km
>= 3000ft
5 to 8 km
1000 to 3000 ft
1500m to 5 km
500 to 1000 ft
800 to 1500m
200 to 500 ft
< 800m
< 200 ft
Symbols :   Thunderstorms  Fog  Heavy snow  Heavy precipitations  Wind > 20 kt
SIGMETs :     Misc.  Thunderstorms  Icing  Turbulence  Mountain Waves  Volcanic Ashes







- Airport Elevation : 425 ft
- IATA code : DTM


EDLW - Dortmund

EXPIRED METARs :
  • 221950Z 30010KT 230V360 CAVOK 21/14 Q1010
  • 221920Z 28006KT 230V330 CAVOK 22/14 Q1009

TAF TAF EDLW
Valid from the 22 at 18:00 until the 23 at 18:00 UTC


221700Z 2218/2318 26013KT CAVOK
TEMPO 2218/2220 26020G35KT TSRA BKN040CB
PROB30
TEMPO 2218/2220 26025G45KT TSRAGR
BECMG 2218/2220 25008KT
TEMPO 2220/2223 25015G25KT
No reported NOTAMs for that airfield.
1 SIGMET reported for the Langen FIR (EDGG) :
 
Frequent thunderstorms and hail
EDGG SIGMET 5 VALID 222015/222215 EDZF
EDGG LANGEN FIR FRQ TSGR OBS WI N5121 E01011 - N5119 E01035 - N5044 E01040 - N5028 E01032 - N5017 E00848 - N5034 E00843 - N5121 E01011 TOP FL420 MOV E WKN=



MET'MAP, your aeronautical weather chart ! - Copyright ORBIFLY December 2007 - Disclaimer

ORBIFLY MET'MAP TEAM :

Programming & Development : Alexandra Zaïnal
Concept & Development : Baudouin d'Aumeries
Co-Development & Prog : Marc-Olivier Méhu
Technical & hardware support : Manuel Goepfert

Contact : metmap@orbifly.com




SOURCES & CREDITS :

   NOAA